Robert Gray Army Air Field Airport Fort Hood,Killeen US
ICAO: KGRK
IATA: GRK
Category: Medium
Scheduled Services: Yes

Elevation: 1015 ft
TransAlt. 18000 ft.

Airport Communications:
GRAY APP/DEP:120.075
ATIS:111.8
CLNC DEL:121.8
GRAY GND:126.2
RANGE CTL:30.45
FT HOOD FLT FLW:38.75
PMSV GRAY METRO:41.2
PTD:38.7
TWR:120.75

KGRK Zoom In..

Runways:

(A) RW 15 length 10000 ft width 200 ft
ILS 111.10 / hdg 150

(B) RW 33 length 10000 ft width 200 ft
ILS 109.35 / hdg 330

Location; KGRK
Day. 14 / Time. 13.58 Zulu
* Altimeter: 29.99
* Temperature: 25° c. 77°f.
* Wind from: 170° Speed 13 kn with Gusts up to 21 kn.
Dewpoint: 21° c.
Visibility: 8 Statute Miles.
Clouds: Few 1700 ft.
Clouds: Scattered 24000 ft.

KGRK 141358Z AUTO 17013G21KT 8SM FEW017 SCT240 25/21 A2999 RMK AO2 SLP145 T02520208


Wind From 170°
Speed 13 kn.

 
 
jpsmedia.com for Web Design worldairports.se 2018   terms of use